Lancaster, Kansas
Current Conditions -  °F | °C
As of 2:53 AM on Saturday 25 Oct 2014 (Local Time) from KSTJ Reporting Station
Moderate Fog Moderate Fog  
Wind Chill: 12°   Ceiling: 100
Heat Index: 12°   Visibility: 0mi
Dew Point: 12°   Wind: 0mph
Humidity: 100%   Direction: NA
Pressure: 30.02"   Gusts: NA
Location:  39.57°N, 95.3°W
Report Text: KSTJ 250753Z AUTO 00000KT M1/4SM R35/0700V0800FT FG VV001 12/12 A3002 RMK AO2 SLP160 T01170117
Loading
Personal Weather Stations






























Interactive Weather Map
Tropical Storm Tracking
New forecast layout! Learn more

10-Day Weather Forecast

Advertisements
Track Severe Weather on mobile